Time,TemperatureF,DewpointF,PressureIn,WindDirection,WindDirectionDegrees,WindSpeedMPH,WindSpeedGustMPH,Humidity,HourlyPrecipIn,Conditions,Clouds,dailyrainin,SolarRadiationWatts/m^2,SoftwareType,DateUTC
2013-05-24 00:00:00,77.5,73.0,30.00,WNW,292,6.0,6.0,86,0.00,,,0.00,0,Wunderground v.1.15,2013-05-24 04:00:00,
2013-05-24 00:30:00,77.4,73.2,30.00,WNW,293,6.0,7.0,87,0.00,,,0.00,0,Wunderground v.1.15,2013-05-24 04:30:00,
2013-05-24 01:00:00,77.1,73.3,30.00,WNW,294,6.0,6.0,88,0.00,,,0.00,0,Wunderground v.1.15,2013-05-24 05:00:00,
2013-05-24 01:30:00,76.9,73.4,30.00,WNW,290,6.0,8.0,89,0.00,,,0.00,0,Wunderground v.1.15,2013-05-24 05:30:00,
2013-05-24 02:00:00,76.8,73.0,30.00,WNW,294,7.0,7.0,88,0.00,,,0.00,0,Wunderground v.1.15,2013-05-24 06:00:00,
2013-05-24 02:30:00,77.0,73.5,29.99,NW,304,9.0,11.0,89,0.00,,,0.00,0,Wunderground v.1.15,2013-05-24 06:30:00,
2013-05-24 03:00:00,77.1,73.6,29.99,WNW,286,9.0,9.0,89,0.00,,,0.00,0,Wunderground v.1.15,2013-05-24 07:00:00,
2013-05-24 03:30:00,76.9,73.4,29.98,WNW,291,10.0,10.0,89,0.00,,,0.00,0,Wunderground v.1.15,2013-05-24 07:30:00,
2013-05-24 04:00:00,76.9,73.4,29.98,WNW,291,11.0,14.0,89,0.00,,,0.00,0,Wunderground v.1.15,2013-05-24 08:00:00,
2013-05-24 04:30:00,77.3,73.8,29.98,WNW,298,9.0,9.0,89,0.00,,,0.00,0,Wunderground v.1.15,2013-05-24 08:30:00,
2013-05-24 05:00:00,77.0,73.5,29.99,WNW,290,8.0,8.0,89,0.00,,,0.00,0,Wunderground v.1.15,2013-05-24 09:00:00,
2013-05-24 05:30:00,77.1,72.6,29.99,WNW,288,7.0,7.0,86,0.00,,,0.00,0,Wunderground v.1.15,2013-05-24 09:30:00,
2013-05-24 06:00:00,77.0,72.1,30.00,WNW,301,9.0,9.0,85,0.00,,,0.00,0,Wunderground v.1.15,2013-05-24 10:00:00,
2013-05-24 06:30:00,77.2,72.3,30.00,WNW,289,9.0,9.0,85,0.00,,,0.00,0,Wunderground v.1.15,2013-05-24 10:30:00,
2013-05-24 07:00:00,78.2,72.3,30.01,NNW,327,13.0,13.0,82,0.00,,,0.00,25,Wunderground v.1.15,2013-05-24 11:00:00,
2013-05-24 07:30:00,78.4,72.4,30.02,NNW,327,12.0,14.0,82,0.00,,,0.00,93,Wunderground v.1.15,2013-05-24 11:30:00,
2013-05-24 08:00:00,77.8,73.3,30.02,NNW,337,12.0,14.0,86,0.00,,,0.00,178,Wunderground v.1.15,2013-05-24 12:00:00,
2013-05-24 08:30:00,77.9,73.7,30.03,NW,323,14.0,16.0,87,0.00,,,0.00,276,Wunderground v.1.15,2013-05-24 12:30:00,
2013-05-24 09:00:00,78.4,73.5,30.04,NNW,330,13.0,13.0,85,0.00,,,0.00,380,Wunderground v.1.15,2013-05-24 13:00:00,
2013-05-24 09:30:00,78.7,73.5,30.05,NNW,331,9.0,9.0,84,0.00,,,0.00,482,Wunderground v.1.15,2013-05-24 13:30:00,
2013-05-24 10:00:00,79.1,73.8,30.05,NNW,329,7.0,8.0,84,0.00,,,0.00,578,Wunderground v.1.15,2013-05-24 14:00:00,
2013-05-24 10:30:00,79.4,74.1,30.05,NW,317,7.0,9.0,84,0.00,,,0.00,668,Wunderground v.1.15,2013-05-24 14:30:00,
2013-05-24 11:00:00,79.5,74.2,30.05,WNW,294,10.0,10.0,84,0.00,,,0.00,744,Wunderground v.1.15,2013-05-24 15:00:00,
2013-05-24 11:30:00,80.2,74.6,30.06,WNW,290,9.0,10.0,83,0.00,,,0.00,809,Wunderground v.1.15,2013-05-24 15:30:00,
2013-05-24 12:00:00,79.6,74.3,30.06,West,266,12.0,14.0,84,0.00,,,0.00,863,Wunderground v.1.15,2013-05-24 16:00:00,
2013-05-24 12:30:00,79.3,74.7,30.06,West,264,15.0,15.0,86,0.00,,,0.00,898,Wunderground v.1.15,2013-05-24 16:30:00,
2013-05-24 13:00:00,79.1,74.9,30.06,West,268,18.0,19.0,87,0.00,,,0.00,923,Wunderground v.1.15,2013-05-24 17:00:00,
2013-05-24 13:30:00,79.1,74.5,30.05,West,259,19.0,19.0,86,0.00,,,0.00,937,Wunderground v.1.15,2013-05-24 17:30:00,
2013-05-24 14:00:00,79.2,74.6,30.04,West,270,17.0,20.0,86,0.00,,,0.00,928,Wunderground v.1.15,2013-05-24 18:00:00,
2013-05-24 14:30:00,79.2,75.0,30.04,West,275,18.0,18.0,87,0.00,,,0.00,905,Wunderground v.1.15,2013-05-24 18:30:00,
2013-05-24 15:00:00,79.9,75.3,30.05,West,270,16.0,16.0,86,0.00,,,0.00,853,Wunderground v.1.15,2013-05-24 19:00:00,
2013-05-24 15:30:00,79.4,75.2,30.04,WNW,289,18.0,20.0,87,0.00,,,0.00,807,Wunderground v.1.15,2013-05-24 19:30:00,
2013-05-24 16:00:00,80.2,75.6,30.03,West,274,17.0,24.0,86,0.00,,,0.00,742,Wunderground v.1.15,2013-05-24 20:00:00,
2013-05-24 16:30:00,80.7,75.8,30.03,WNW,303,17.0,21.0,85,0.00,,,0.00,628,Wunderground v.1.15,2013-05-24 20:30:00,
2013-05-24 17:00:00,80.7,75.8,30.02,WNW,292,19.0,19.0,85,0.00,,,0.00,589,Wunderground v.1.15,2013-05-24 21:00:00,
2013-05-24 17:30:00,81.1,75.4,30.03,WNW,296,16.0,21.0,83,0.00,,,0.00,487,Wunderground v.1.15,2013-05-24 21:30:00,
2013-05-24 18:00:00,82.2,74.7,30.01,WNW,295,15.0,15.0,78,0.00,,,0.00,357,Wunderground v.1.15,2013-05-24 22:00:00,
2013-05-24 18:30:00,83.3,72.1,30.01,North,351,14.0,16.0,69,0.00,,,0.00,279,Wunderground v.1.15,2013-05-24 22:30:00,
2013-05-24 19:00:00,83.2,71.1,30.01,NW,315,16.0,16.0,67,0.00,,,0.00,149,Wunderground v.1.15,2013-05-24 23:00:00,
2013-05-24 19:30:00,83.3,70.8,30.02,NW,306,17.0,20.0,66,0.00,,,0.00,86,Wunderground v.1.15,2013-05-24 23:30:00,
2013-05-24 20:00:00,82.8,70.3,30.02,NW,312,17.0,21.0,66,0.00,,,0.00,26,Wunderground v.1.15,2013-05-25 00:00:00,
2013-05-24 20:30:00,82.2,71.9,30.03,NW,315,17.0,17.0,71,0.00,,,0.00,0,Wunderground v.1.15,2013-05-25 00:30:00,
2013-05-24 21:00:00,81.9,71.6,30.02,NW,311,16.0,16.0,71,0.00,,,0.00,0,Wunderground v.1.15,2013-05-25 01:00:00,
2013-05-24 21:30:00,81.8,71.1,30.04,NW,304,15.0,15.0,70,0.00,,,0.00,0,Wunderground v.1.15,2013-05-25 01:30:00,
2013-05-24 22:00:00,82.0,70.8,30.05,NW,309,12.0,12.0,69,0.00,,,0.00,0,Wunderground v.1.15,2013-05-25 02:00:00,
2013-05-24 22:30:00,81.8,70.2,30.05,NW,309,11.0,12.0,68,0.00,,,0.00,0,Wunderground v.1.15,2013-05-25 02:30:00,
2013-05-24 23:00:00,81.3,70.2,30.06,NW,311,12.0,12.0,69,0.00,,,0.00,0,Wunderground v.1.15,2013-05-25 03:00:00,
2013-05-24 23:30:00,81.2,70.5,30.07,NW,319,11.0,11.0,70,0.00,,,0.00,0,Wunderground v.1.15,2013-05-25 03:30:00,